Time;durP1;ratioP1;P1;durP2;ratioP2;P2;SDS_P1;SDS_P2;PMS_P1;PMS_P2;Temp;Humidity;BMP_temperature;BMP_pressure;BME280_temperature;BME280_humidity;BME280_pressure;Samples;Min_cycle;Max_cycle;Signal;HPM_P1;HPM_P2
2021/07/20 00:01:11;;;;;;;19.97;16.23;;;;;;;;;;5014908;28;20460;-89
2021/07/20 00:03:38;;;;;;;22.00;15.60;;;;;;;;;;5014364;28;20462;-91
2021/07/20 00:06:06;;;;;;;19.97;15.60;;;;;;;;;;5015244;28;20467;-89
2021/07/20 00:08:33;;;;;;;20.90;16.10;;;;;;;;;;4999997;28;20460;-89
2021/07/20 00:11:03;;;;;;;21.70;15.90;;;16.30;99.90;;;;;;4995492;28;20450;-91
2021/07/20 00:13:30;;;;;;;19.80;15.63;;;;;;;;;;4995420;28;20445;-90
2021/07/20 00:15:58;;;;;;;21.23;15.57;;;;;;;;;;4995257;28;20488;-88
2021/07/20 00:18:27;;;;;;;19.83;16.00;;;16.40;99.90;;;;;;4992484;28;20877;-88
2021/07/20 00:20:54;;;;;;;22.40;16.63;;;;;;;;;;4991664;28;20539;-89
2021/07/20 00:23:23;;;;;;;22.30;17.13;;;16.20;99.90;;;;;;4992249;28;20846;-89
2021/07/20 00:25:50;;;;;;;21.07;16.27;;;;;;;;;;4988903;28;20480;-88
2021/07/20 00:28:19;;;;;;;21.50;16.70;;;16.10;99.90;;;;;;4995387;28;20453;-88
2021/07/20 00:30:47;;;;;;;19.47;15.20;;;;;;;;;;4995463;28;20441;-88
2021/07/20 00:33:14;;;;;;;19.83;16.53;;;;;;;;;;4991554;28;20458;-89
2021/07/20 00:35:41;;;;;;;28.73;17.20;;;;;;;;;;4995273;28;20460;-88
2021/07/20 00:38:11;;;;;;;21.27;17.20;;;;;;;;;;4991931;28;20453;-88
2021/07/20 00:40:38;;;;;;;22.27;16.63;;;;;;;;;;4992640;28;20449;-88
2021/07/20 00:43:06;;;;;;;22.63;16.80;;;;;;;;;;4994859;28;20463;-90
2021/07/20 00:45:35;;;;;;;24.43;16.90;;;15.80;99.90;;;;;;4995167;28;20476;-88
2021/07/20 00:48:02;;;;;;;23.30;16.27;;;;;;;;;;4993882;28;20457;-89
2021/07/20 00:50:33;;;;;;;22.33;16.67;;;15.80;99.90;;;;;;4994741;28;20597;-88
2021/07/20 00:53:02;;;;;;;24.03;15.77;;;;;;;;;;4995211;28;20458;-89
2021/07/20 00:55:30;;;;;;;20.23;17.07;;;;;;;;;;4995368;28;20452;-90
2021/07/20 00:57:57;;;;;;;21.17;16.53;;;15.60;99.90;;;;;;4996176;28;20551;-90
2021/07/20 01:00:24;;;;;;;20.87;16.37;;;;;;;;;;5002184;28;20460;-89
2021/07/20 01:02:53;;;;;;;20.70;15.10;;;15.50;99.90;;;;;;5014732;28;20429;-89
2021/07/20 01:05:23;;;;;;;18.30;15.13;;;15.40;99.90;;;;;;5009667;28;20455;-88
2021/07/20 01:07:50;;;;;;;19.67;15.63;;;;;;;;;;4995338;28;20457;-88
2021/07/20 01:10:19;;;;;;;23.03;16.50;;;15.20;99.90;;;;;;4994764;28;20450;-88
2021/07/20 01:12:47;;;;;;;21.90;16.53;;;15.20;99.90;;;;;;4994629;28;20452;-88
2021/07/20 01:15:15;;;;;;;21.47;16.30;;;15.10;99.90;;;;;;4994249;28;20449;-89
2021/07/20 01:17:44;;;;;;;21.70;17.20;;;15.10;99.90;;;;;;4990352;28;20497;-88
2021/07/20 01:20:17;;;;;;;21.17;15.60;;;14.40;99.90;;;;;;4994217;28;20458;-88
2021/07/20 01:22:53;;;;;;;21.33;15.80;;;15.00;99.90;;;;;;4989879;28;20453;-88
2021/07/20 01:25:22;;;;;;;22.20;17.73;;;15.00;99.90;;;;;;4985870;28;20500;-88
2021/07/20 01:27:52;;;;;;;21.37;15.27;;;15.00;99.90;;;;;;4994218;28;20453;-89
2021/07/20 01:30:20;;;;;;;23.70;16.00;;;;;;;;;;4990930;28;20460;-89
2021/07/20 01:32:48;;;;;;;20.47;15.33;;;14.80;99.90;;;;;;4992802;28;20460;-89
2021/07/20 01:35:16;;;;;;;20.80;15.53;;;14.80;99.90;;;;;;4990569;28;20456;-90
2021/07/20 01:37:46;;;;;;;21.53;17.10;;;14.80;99.90;;;;;;4991012;28;20484;-88
2021/07/20 01:40:14;;;;;;;21.57;16.87;;;14.60;99.90;;;;;;4994070;28;20452;-89
2021/07/20 01:42:44;;;;;;;20.83;16.77;;;14.70;99.90;;;;;;4994033;28;20984;-88
2021/07/20 01:45:12;;;;;;;21.00;16.00;;;14.40;99.90;;;;;;4990148;28;20453;-88
2021/07/20 01:47:43;;;;;;;18.57;15.07;;;14.70;99.90;;;;;;4989961;28;20460;-88
2021/07/20 01:50:13;;;;;;;24.00;16.60;;;14.70;99.90;;;;;;4993781;28;20488;-90
2021/07/20 01:52:40;;;;;;;18.20;15.07;;;;;;;;;;4994000;28;20452;-88
2021/07/20 01:55:08;;;;;;;23.30;15.50;;;;;;;;;;4991181;28;20442;-88
2021/07/20 01:57:35;;;;;;;21.17;15.80;;;;;;;;;;4994038;28;20492;-88
2021/07/20 02:00:08;;;;;;;20.23;15.30;;;14.60;99.90;;;;;;4993968;28;20460;-87
2021/07/20 02:02:50;;;;;;;22.57;17.13;;;14.50;99.90;;;;;;4992820;28;20452;-89
2021/07/20 02:08:25;;;;;;;18.97;14.47;;;;;;;;;;4993667;28;20624;-88
2021/07/20 02:10:54;;;;;;;20.20;16.20;;;14.40;99.90;;;;;;4990820;28;20496;-89
2021/07/20 02:13:22;;;;;;;19.53;15.87;;;14.50;99.90;;;;;;4987339;28;20450;-89
2021/07/20 02:15:51;;;;;;;20.27;16.37;;;14.50;99.90;;;;;;4994088;28;20449;-87
2021/07/20 02:18:20;;;;;;;23.40;15.60;;;14.60;99.90;;;;;;4992471;28;20493;-88
2021/07/20 02:20:48;;;;;;;20.57;16.43;;;;;;;;;;4993830;28;20453;-89
2021/07/20 02:23:15;;;;;;;20.83;15.17;;;;;;;;;;4993852;28;20468;-88
2021/07/20 02:25:44;;;;;;;24.10;16.20;;;14.50;99.90;;;;;;4993920;28;20441;-88
2021/07/20 02:28:11;;;;;;;22.47;15.60;;;14.60;99.90;;;;;;4990753;28;20464;-88
2021/07/20 02:30:39;;;;;;;22.20;15.20;;;;;;;;;;4986759;28;20516;-90
2021/07/20 02:33:08;;;;;;;20.33;15.03;;;14.50;99.90;;;;;;4989824;28;20468;-88
2021/07/20 02:35:35;;;;;;;21.30;15.70;;;;;;;;;;4989686;28;20445;-89
2021/07/20 02:38:02;;;;;;;21.30;15.10;;;;;;;;;;4993529;28;20492;-88
2021/07/20 02:40:30;;;;;;;21.93;15.57;;;;;;;;;;4993597;28;20464;-88
2021/07/20 02:42:59;;;;;;;23.07;15.77;;;14.40;99.90;;;;;;4993589;28;20460;-89
2021/07/20 02:45:29;;;;;;;19.67;14.97;;;14.40;99.90;;;;;;4994680;28;20961;-88
2021/07/20 02:47:56;;;;;;;23.07;15.17;;;;;;;;;;4993415;28;20441;-88
2021/07/20 02:50:25;;;;;;;24.63;16.33;;;14.50;99.90;;;;;;4993262;28;20481;-88
2021/07/20 02:52:53;;;;;;;26.00;16.03;;;14.50;99.90;;;;;;4997121;28;20453;-88
2021/07/20 02:55:21;;;;;;;23.50;15.20;;;;;;;;;;4997358;28;21060;-90
2021/07/20 02:57:49;;;;;;;20.53;15.60;;;14.40;99.90;;;;;;4993857;28;20492;-88
2021/07/20 03:00:17;;;;;;;23.60;15.17;;;14.40;99.90;;;;;;4997578;28;20453;-88
2021/07/20 03:02:46;;;;;;;19.20;13.80;;;14.30;99.90;;;;;;4995841;28;21297;-89
2021/07/20 03:05:14;;;;;;;22.47;14.60;;;14.40;99.90;;;;;;4997307;28;20449;-88
2021/07/20 03:07:47;;;;;;;25.03;16.80;;;14.30;99.90;;;;;;4997023;28;20465;-87
2021/07/20 03:10:15;;;;;;;25.30;14.90;;;;;;;;;;4979002;28;20449;-89
2021/07/20 03:12:46;;;;;;;19.53;15.13;;;14.30;99.90;;;;;;4996801;28;20548;-88
2021/07/20 03:15:14;;;;;;;23.83;14.50;;;14.20;99.90;;;;;;4996812;28;20453;-88
2021/07/20 03:17:42;;;;;;;22.47;15.20;;;14.20;99.90;;;;;;4991044;28;20513;-89
2021/07/20 03:20:13;;;;;;;22.27;14.70;;;14.20;99.90;;;;;;4996795;28;20472;-90
2021/07/20 03:22:43;;;;;;;23.60;16.00;;;14.10;99.90;;;;;;4994123;28;20445;-89
2021/07/20 03:25:12;;;;;;;24.30;15.13;;;14.10;99.90;;;;;;4996639;28;20457;-88
2021/07/20 03:27:41;;;;;;;22.63;13.57;;;14.10;99.90;;;;;;4996768;28;20461;-88
2021/07/20 03:30:10;;;;;;;23.87;16.20;;;14.10;99.90;;;;;;4996582;28;20438;-88
2021/07/20 03:32:43;;;;;;;21.50;14.60;;;14.10;99.90;;;;;;4989398;28;20445;-89
2021/07/20 03:35:13;;;;;;;21.70;14.57;;;14.00;99.90;;;;;;4994380;28;20453;-89
2021/07/20 03:37:40;;;;;;;21.30;15.10;;;;;;;;;;4996551;28;20512;-88
2021/07/20 03:40:11;;;;;;;22.23;15.47;;;13.90;99.90;;;;;;4996704;28;20449;-88
2021/07/20 03:42:39;;;;;;;19.20;14.33;;;14.00;99.90;;;;;;4996405;28;20453;-88
2021/07/20 03:45:08;;;;;;;20.00;15.27;;;13.90;99.90;;;;;;4996757;28;20917;-87
2021/07/20 03:47:36;;;;;;;19.20;14.43;;;13.90;99.90;;;;;;4996604;28;20454;-88
2021/07/20 03:50:05;;;;;;;20.07;14.70;;;13.90;99.90;;;;;;5003406;28;20476;-88
2021/07/20 03:52:33;;;;;;;22.83;15.03;;;13.90;99.90;;;;;;5017838;28;20437;-88
2021/07/20 03:55:00;;;;;;;20.37;14.27;;;;;;;;;;5006561;28;20457;-88
2021/07/20 03:57:29;;;;;;;21.33;16.20;;;13.90;99.90;;;;;;4996727;28;20489;-89
2021/07/20 04:00:00;;;;;;;20.53;14.70;;;13.80;99.90;;;;;;4996164;28;20867;-88
2021/07/20 04:02:31;;;;;;;20.63;14.60;;;13.80;99.90;;;;;;4995325;28;20453;-87
2021/07/20 04:05:00;;;;;;;18.97;14.67;;;13.80;99.90;;;;;;4991990;28;20449;-88
2021/07/20 04:07:27;;;;;;;18.20;12.70;;;;;;;;;;4991979;28;20445;-89
2021/07/20 04:09:55;;;;;;;16.67;13.60;;;;;;;;;;4995962;28;20786;-88
2021/07/20 04:12:22;;;;;;;22.80;14.50;;;13.80;99.90;;;;;;4991290;28;20460;-89
2021/07/20 04:14:55;;;;;;;18.13;13.20;;;13.80;99.90;;;;;;4995892;28;20454;-89
2021/07/20 04:17:22;;;;;;;23.03;13.87;;;;;;;;;;4993679;28;20485;-89
2021/07/20 04:19:50;;;;;;;24.57;15.63;;;;;;;;;;4996163;28;20453;-88
2021/07/20 04:22:17;;;;;;;20.53;14.07;;;;;;;;;;4991296;28;20455;-88
2021/07/20 04:24:45;;;;;;;20.57;14.70;;;13.90;99.90;;;;;;4995507;28;20460;-89
2021/07/20 04:27:13;;;;;;;18.83;14.70;;;13.90;99.90;;;;;;4992588;28;20508;-88
2021/07/20 04:29:40;;;;;;;20.40;15.23;;;;;;;;;;4944412;28;20446;-88
2021/07/20 04:32:10;;;;;;;20.50;13.43;;;14.00;99.90;;;;;;4995503;28;20464;-89
2021/07/20 04:34:38;;;;;;;18.27;14.50;;;14.00;99.90;;;;;;4994352;28;20453;-88
2021/07/20 04:37:07;;;;;;;17.67;13.83;;;14.10;99.90;;;;;;4995541;28;20460;-90
2021/07/20 04:39:35;;;;;;;19.77;13.33;;;14.20;99.90;;;;;;4995562;28;20822;-88
2021/07/20 04:42:03;;;;;;;20.43;13.83;;;14.20;99.90;;;;;;4995036;28;20483;-87
2021/07/20 04:44:31;;;;;;;19.70;12.60;;;;;;;;;;4995262;28;20456;-88
2021/07/20 04:46:59;;;;;;;18.83;13.23;;;14.20;99.90;;;;;;4992504;28;20446;-88
2021/07/20 04:49:28;;;;;;;19.60;13.13;;;;;;;;;;4989161;28;20480;-87
2021/07/20 04:51:55;;;;;;;15.57;12.10;;;;;;;;;;4995194;28;20449;-87
2021/07/20 04:54:22;;;;;;;17.10;12.63;;;;;;;;;;4995124;28;20452;-88
2021/07/20 04:56:49;;;;;;;18.23;13.40;;;;;;;;;;4995056;28;20511;-88
2021/07/20 04:59:16;;;;;;;18.40;13.80;;;;;;;;;;4995267;28;20492;-89
2021/07/20 05:01:44;;;;;;;18.20;13.50;;;;;;;;;;4995037;28;20457;-90
2021/07/20 05:04:11;;;;;;;18.10;13.43;;;;;;;;;;4991067;28;20527;-89
2021/07/20 05:06:40;;;;;;;17.50;14.20;;;14.70;99.90;;;;;;4994539;28;20450;-87
2021/07/20 05:09:08;;;;;;;21.37;13.17;;;14.70;99.90;;;;;;4992736;28;20460;-90
2021/07/20 05:11:37;;;;;;;20.17;12.70;;;14.80;99.90;;;;;;4995629;28;20449;-87
2021/07/20 05:14:04;;;;;;;18.90;13.00;;;;;;;;;;4996167;28;20456;-88
2021/07/20 05:16:31;;;;;;;16.83;12.90;;;;;;;;;;4995932;28;20472;-89
2021/07/20 05:18:59;;;;;;;22.70;13.10;;;;;;;;;;4995699;28;20508;-90
2021/07/20 05:21:26;;;;;;;18.10;12.60;;;;;;;;;;4999432;28;20453;-88
2021/07/20 05:23:55;;;;;;;16.80;13.40;;;15.10;99.90;;;;;;5000530;28;20481;-86
2021/07/20 05:26:22;;;;;;;20.53;13.63;;;;;;;;;;5001120;28;20455;-89
2021/07/20 05:28:50;;;;;;;19.40;13.97;;;;;;;;;;4998083;28;20456;-89
2021/07/20 05:31:18;;;;;;;17.80;12.10;;;;;;;;;;4997485;28;20449;-88
2021/07/20 05:33:45;;;;;;;15.13;10.93;;;;;;;;;;4997146;28;20458;-89
2021/07/20 05:36:12;;;;;;;13.57;10.27;;;;;;;;;;4999389;28;20452;-88
2021/07/20 05:38:40;;;;;;;15.53;11.70;;;;;;;;;;5006994;28;20497;-91
2021/07/20 05:41:09;;;;;;;17.00;11.57;;;16.00;99.90;;;;;;5005727;28;20449;-89
2021/07/20 05:43:37;;;;;;;14.50;11.30;;;16.40;99.90;;;;;;5004798;28;20449;-91
2021/07/20 05:46:05;;;;;;;16.33;12.33;;;;;;;;;;5004980;28;20445;-89
2021/07/20 05:48:32;;;;;;;15.13;12.00;;;;;;;;;;4994986;28;20487;-89
2021/07/20 05:51:03;;;;;;;18.20;11.00;;;;;;;;;;4991840;28;20456;-89
2021/07/20 05:53:32;;;;;;;13.00;10.40;;;17.60;99.90;;;;;;4994543;28;20596;-89
2021/07/20 05:56:02;;;;;;;18.17;11.87;;;17.60;99.90;;;;;;4995112;28;20948;-90
2021/07/20 05:58:31;;;;;;;16.87;10.60;;;18.00;99.90;;;;;;4990783;28;20488;-88
2021/07/20 06:01:01;;;;;;;14.13;10.67;;;17.00;99.90;;;;;;4994319;28;20445;-88
2021/07/20 06:03:28;;;;;;;14.70;9.90;;;;;;;;;;4992830;28;20460;-86
2021/07/20 06:05:57;;;;;;;15.93;11.73;;;19.00;99.90;;;;;;4994501;28;20548;-86
2021/07/20 06:08:26;;;;;;;16.07;11.17;;;18.90;99.90;;;;;;4991781;28;20445;-91
2021/07/20 06:10:55;;;;;;;12.00;10.30;;;19.00;99.90;;;;;;4988264;28;20434;-90
2021/07/20 06:13:24;;;;;;;13.87;10.27;;;19.20;99.90;;;;;;4993779;28;20452;-91
2021/07/20 06:15:54;;;;;;;13.93;10.40;;;19.20;99.90;;;;;;4988953;28;20444;-90
2021/07/20 06:18:22;;;;;;;14.83;10.93;;;;;;;;;;4996143;28;20488;-92
2021/07/20 06:20:54;;;;;;;12.40;10.30;;;19.40;99.90;;;;;;4996612;28;20444;-91
2021/07/20 06:23:22;;;;;;;12.03;10.30;;;19.70;99.90;;;;;;4997925;28;20461;-89
2021/07/20 06:25:50;;;;;;;15.30;10.97;;;19.70;99.90;;;;;;4998276;28;20444;-89
2021/07/20 06:28:17;;;;;;;12.20;10.90;;;;;;;;;;4997884;28;20445;-89
2021/07/20 06:30:46;;;;;;;15.63;11.43;;;19.70;99.90;;;;;;4995947;28;20794;-91
2021/07/20 06:33:15;;;;;;;14.33;11.70;;;19.80;99.90;;;;;;4997101;28;20476;-87
2021/07/20 06:35:46;;;;;;;13.10;11.10;;;19.80;99.90;;;;;;4995977;28;20452;-88
2021/07/20 06:38:20;;;;;;;14.33;11.00;;;19.90;99.90;;;;;;4981486;28;20635;-88
2021/07/20 06:40:50;;;;;;;15.97;11.40;;;19.90;99.90;;;;;;5009534;28;20441;-89
2021/07/20 06:43:18;;;;;;;14.97;11.40;;;;;;;;;;5021949;28;20437;-88
2021/07/20 06:45:46;;;;;;;11.63;10.47;;;20.30;99.90;;;;;;4999326;28;20937;-89
2021/07/20 06:48:16;;;;;;;14.23;11.53;;;20.20;99.90;;;;;;4994761;28;20460;-91
2021/07/20 06:50:43;;;;;;;12.10;10.33;;;;;;;;;;4993868;28;20508;-90
2021/07/20 06:53:13;;;;;;;12.47;9.40;;;20.10;99.90;;;;;;5002009;28;20444;-90
2021/07/20 06:55:45;;;;;;;12.70;10.93;;;19.70;99.90;;;;;;5008212;28;20452;-91
2021/07/20 06:58:14;;;;;;;14.83;10.63;;;;;;;;;;5008087;28;20531;-89
2021/07/20 07:00:43;;;;;;;14.10;10.60;;;20.40;99.90;;;;;;5017237;28;20436;-91
2021/07/20 07:03:11;;;;;;;16.83;10.70;;;20.80;99.90;;;;;;5016497;28;20448;-91
2021/07/20 07:05:40;;;;;;;13.27;10.10;;;21.10;99.90;;;;;;5017104;28;20443;-92
2021/07/20 07:08:08;;;;;;;13.27;10.37;;;;;;;;;;5016015;28;20991;-88
2021/07/20 07:10:35;;;;;;;11.23;9.90;;;;;;;;;;4996899;28;20445;-90
2021/07/20 07:13:06;;;;;;;12.43;10.07;;;;;;;;;;4994297;28;20457;-88
2021/07/20 07:15:33;;;;;;;13.30;10.37;;;;;;;;;;4997062;28;20454;-93
2021/07/20 07:18:01;;;;;;;13.90;10.20;;;;;;;;;;4991771;28;20445;-91
2021/07/20 07:20:29;;;;;;;11.03;9.87;;;21.40;99.90;;;;;;4994363;28;20437;-89
2021/07/20 07:22:59;;;;;;;11.17;9.60;;;21.20;99.90;;;;;;5007467;28;20468;-89
2021/07/20 07:25:26;;;;;;;14.43;10.57;;;;;;;;;;5009716;28;20464;-89
2021/07/20 07:27:54;;;;;;;12.30;10.07;;;;;;;;;;5016595;28;20467;-90
2021/07/20 07:30:22;;;;;;;13.10;10.20;;;;;;;;;;5015879;28;21034;-91
2021/07/20 07:32:50;;;;;;;11.50;10.20;;;;;;;;;;5016460;28;20809;-90
2021/07/20 07:35:17;;;;;;;15.80;10.27;;;;;;;;;;4998445;28;20460;-92
2021/07/20 07:37:45;;;;;;;14.90;10.60;;;22.40;99.90;;;;;;5002322;28;20453;-91
2021/07/20 07:40:18;;;;;;;11.37;10.13;;;22.30;99.90;;;;;;4993167;28;20507;-91
2021/07/20 07:42:45;;;;;;;13.87;11.30;;;;;;;;;;5015945;28;20803;-92
2021/07/20 07:45:15;;;;;;;10.90;9.20;;;22.40;99.90;;;;;;5007236;28;20448;-90
2021/07/20 07:47:44;;;;;;;10.60;9.00;;;22.10;99.90;;;;;;4997111;28;20445;-91
2021/07/20 07:50:12;;;;;;;11.30;9.83;;;22.00;99.90;;;;;;4996968;28;20504;-91
2021/07/20 07:52:41;;;;;;;13.30;10.10;;;22.60;99.90;;;;;;4934312;29;20948;-92
2021/07/20 07:55:10;;;;;;;12.03;9.07;;;22.60;99.90;;;;;;4936058;29;20459;-91
2021/07/20 07:57:40;;;;;;;11.00;9.90;;;22.90;99.90;;;;;;4936656;29;20967;-92
2021/07/20 08:00:09;;;;;;;12.37;9.90;;;22.80;99.90;;;;;;4936673;29;21023;-93
2021/07/20 08:02:39;;;;;;;11.97;9.70;;;23.10;99.90;;;;;;4935963;29;20456;-95
2021/07/20 08:05:08;;;;;;;11.33;9.17;;;23.00;99.90;;;;;;4936584;29;20452;-92
2021/07/20 08:07:37;;;;;;;11.87;9.10;;;22.90;99.90;;;;;;4920941;29;20472;-92
2021/07/20 08:10:05;;;;;;;18.27;9.53;;;23.10;99.90;;;;;;4934385;29;20468;-90
2021/07/20 08:12:33;;;;;;;14.97;10.70;;;;;;;;;;4936599;29;20448;-92
2021/07/20 08:15:01;;;;;;;10.80;9.70;;;23.20;99.90;;;;;;4935982;29;20448;-90
2021/07/20 08:17:28;;;;;;;15.73;9.83;;;;;;;;;;4935460;29;20470;-88
2021/07/20 08:19:58;;;;;;;10.37;9.27;;;23.70;99.90;;;;;;4935817;29;21127;-90
2021/07/20 08:22:27;;;;;;;9.47;8.50;;;23.70;99.90;;;;;;4936332;29;20468;-90
2021/07/20 08:25:01;;;;;;;13.77;8.40;;;23.90;99.90;;;;;;4992914;28;20449;-93
2021/07/20 08:27:36;;;;;;;12.40;9.00;;;23.30;99.90;;;;;;4993308;28;20452;-91
2021/07/20 08:30:07;;;;;;;11.07;8.53;;;23.60;99.90;;;;;;4993204;28;20924;-92
2021/07/20 08:32:37;;;;;;;13.80;8.40;;;23.70;99.90;;;;;;4994639;28;20448;-90
2021/07/20 08:35:09;;;;;;;11.30;8.87;;;24.00;99.90;;;;;;4995772;28;20795;-92
2021/07/20 08:37:38;;;;;;;9.37;7.83;;;23.90;99.90;;;;;;4995884;28;20525;-91
2021/07/20 08:40:15;;;;;;;10.57;9.57;;;22.80;99.90;;;;;;4994345;28;21019;-94
2021/07/20 08:42:52;;;;;;;10.63;8.73;;;21.90;99.90;;;;;;4960614;28;20446;-88
2021/07/20 08:45:26;;;;;;;10.00;7.97;;;22.40;99.90;;;;;;4989111;28;20472;-91
2021/07/20 08:48:12;;;;;;;9.23;7.93;;;22.60;99.90;;;;;;4992191;28;20451;-94
2021/07/20 08:50:46;;;;;;;10.70;7.83;;;23.70;99.90;;;;;;4988065;28;20485;-91
2021/07/20 08:53:22;;;;;;;12.47;8.90;;;23.80;99.90;;;;;;4996328;28;20792;-89
2021/07/20 08:55:54;;;;;;;12.43;8.20;;;24.50;99.90;;;;;;5011353;28;20444;-91
2021/07/20 08:58:29;;;;;;;10.03;8.43;;;24.60;99.90;;;;;;4999564;28;20441;-90
2021/07/20 09:01:02;;;;;;;9.33;7.90;;;25.20;98.00;;;;;;4992457;28;20441;-91
2021/07/20 09:03:51;;;;;;;9.30;8.40;;;25.50;99.90;;;;;;4994313;28;20449;-90
2021/07/20 09:06:22;;;;;;;10.07;8.50;;;25.90;97.50;;;;;;4992248;28;20441;-91
2021/07/20 09:08:54;;;;;;;8.83;7.93;;;25.30;95.70;;;;;;4992960;28;20453;-87
2021/07/20 09:11:29;;;;;;;12.60;9.27;;;25.60;98.40;;;;;;5010386;28;20457;-89
2021/07/20 09:14:07;;;;;;;9.73;8.30;;;26.10;96.90;;;;;;4994951;28;20499;-88
2021/07/20 09:16:39;;;;;;;12.40;9.33;;;26.20;96.60;;;;;;5008796;28;20927;-89
2021/07/20 09:19:13;;;;;;;9.73;8.73;;;26.40;95.70;;;;;;5014485;28;20861;-89
2021/07/20 09:21:44;;;;;;;10.50;9.00;;;26.40;95.30;;;;;;5014262;28;20468;-88
2021/07/20 09:24:17;;;;;;;12.10;9.93;;;25.40;99.90;;;;;;5009784;28;20479;-88
2021/07/20 09:26:49;;;;;;;12.27;10.90;;;25.10;94.70;;;;;;5010590;28;20451;-88
2021/07/20 09:29:20;;;;;;;16.97;11.27;;;24.70;97.40;;;;;;5021484;28;20446;-87
2021/07/20 09:32:08;;;;;;;16.80;11.83;;;25.50;99.90;;;;;;5038827;28;20437;-88
2021/07/20 09:34:51;;;;;;;10.87;9.77;;;25.90;98.10;;;;;;5022894;28;20440;-87
2021/07/20 09:37:23;;;;;;;11.87;10.70;;;25.90;97.10;;;;;;5008987;28;20452;-88
2021/07/20 09:39:59;;;;;;;15.43;11.53;;;24.70;97.70;;;;;;5013610;28;20492;-89
2021/07/20 09:42:36;;;;;;;12.17;10.97;;;23.90;97.40;;;;;;5014116;28;20452;-91
2021/07/20 09:45:08;;;;;;;14.67;11.97;;;23.20;97.90;;;;;;5011022;28;20452;-91
2021/07/20 09:47:58;;;;;;;13.40;11.37;;;24.50;99.90;;;;;;4993142;28;20461;-87
2021/07/20 09:50:28;;;;;;;12.90;11.40;;;24.70;97.20;;;;;;4993847;28;21025;-89
2021/07/20 09:53:23;;;;;;;14.83;10.90;;;25.60;98.30;;;;;;4993461;28;20608;-88
2021/07/20 09:56:14;;;;;;;12.20;10.50;;;24.60;99.90;;;;;;4993946;28;20445;-88
2021/07/20 09:58:47;;;;;;;15.27;10.33;;;24.70;98.30;;;;;;4994095;28;20508;-88
2021/07/20 10:01:19;;;;;;;13.63;11.70;;;25.20;99.10;;;;;;4994023;28;20449;-88
2021/07/20 10:03:57;;;;;;;13.30;12.00;;;25.80;97.90;;;;;;4991015;28;20448;-90
2021/07/20 10:06:32;;;;;;;14.10;12.60;;;25.60;96.60;;;;;;5010895;28;20448;-89
2021/07/20 10:09:02;;;;;;;17.83;13.00;;;25.20;95.70;;;;;;5013779;28;20451;-89
2021/07/20 10:11:37;;;;;;;13.03;11.70;;;25.10;96.20;;;;;;5013570;28;20454;-90
2021/07/20 10:14:19;;;;;;;14.43;12.37;;;26.30;95.80;;;;;;5012258;28;20444;-91
2021/07/20 10:16:53;;;;;;;12.03;10.83;;;25.30;96.50;;;;;;5014481;28;20807;-90
2021/07/20 10:19:32;;;;;;;13.67;12.17;;;25.90;97.70;;;;;;5010476;28;20969;-89
2021/07/20 10:22:01;;;;;;;13.17;11.90;;;25.70;97.60;;;;;;5013594;28;20484;-90
2021/07/20 10:24:32;;;;;;;15.60;12.50;;;25.40;96.10;;;;;;5011285;28;20440;-91
2021/07/20 10:27:04;;;;;;;14.53;12.10;;;25.40;97.10;;;;;;5009916;28;20444;-95
2021/07/20 10:29:42;;;;;;;12.83;11.37;;;24.90;98.10;;;;;;5007275;28;20540;-90
2021/07/20 10:32:15;;;;;;;13.40;12.10;;;24.30;98.70;;;;;;5013754;28;20451;-90
2021/07/20 10:34:48;;;;;;;14.23;12.70;;;24.90;96.80;;;;;;5008536;28;20436;-92
2021/07/20 10:37:19;;;;;;;13.93;12.40;;;25.10;96.90;;;;;;5008138;28;20809;-90
2021/07/20 10:39:52;;;;;;;14.57;12.13;;;24.70;97.40;;;;;;5009780;28;20534;-92
2021/07/20 10:42:26;;;;;;;17.73;14.40;;;24.30;98.50;;;;;;5011186;28;20453;-90
2021/07/20 10:45:08;;;;;;;13.07;11.77;;;24.60;98.40;;;;;;5019141;28;20453;-96
2021/07/20 10:47:38;;;;;;;14.50;13.00;;;24.80;97.90;;;;;;5012614;28;20967;-95
2021/07/20 10:50:11;;;;;;;15.47;12.30;;;25.10;98.40;;;;;;5017437;28;20496;-92
2021/07/20 10:52:52;;;;;;;15.63;12.67;;;25.50;97.60;;;;;;5008381;28;20451;-93
2021/07/20 10:55:23;;;;;;;17.43;13.00;;;25.70;95.80;;;;;;5014640;28;20448;-91
2021/07/20 10:58:02;;;;;;;17.00;12.77;;;25.50;99.90;;;;;;5015392;28;20451;-90
2021/07/20 11:00:43;;;;;;;15.10;12.93;;;24.80;97.60;;;;;;5012670;28;20480;-91
2021/07/20 11:03:21;;;;;;;14.50;12.33;;;24.30;98.40;;;;;;5010204;28;20451;-92
2021/07/20 11:05:51;;;;;;;15.20;13.60;;;24.70;98.70;;;;;;5014996;28;20455;-90
2021/07/20 11:08:19;;;;;;;15.40;13.30;;;24.90;98.80;;;;;;4983251;28;20510;-90
2021/07/20 11:10:52;;;;;;;17.17;13.93;;;25.10;96.80;;;;;;5017393;28;20892;-93
2021/07/20 11:13:27;;;;;;;16.90;14.37;;;25.70;95.50;;;;;;5002272;28;20445;-91
2021/07/20 11:15:58;;;;;;;15.30;12.47;;;;;;;;;;4984764;28;20448;-94
2021/07/20 11:18:27;;;;;;;14.03;12.53;;;24.90;97.00;;;;;;4998961;28;20466;-88
2021/07/20 11:21:00;;;;;;;17.50;13.20;;;23.80;99.40;;;;;;5012356;28;20964;-90
2021/07/20 11:23:29;;;;;;;13.50;12.20;;;24.10;99.70;;;;;;5013268;28;20445;-90
2021/07/20 11:25:57;;;;;;;13.97;12.37;;;24.50;99.60;;;;;;5013953;28;20448;-91
2021/07/20 11:28:24;;;;;;;20.13;12.77;;;;;;;;;;5016992;28;20448;-90
2021/07/20 11:30:55;;;;;;;16.53;12.57;;;25.70;97.90;;;;;;5019668;28;20456;-91
2021/07/20 11:33:28;;;;;;;14.37;11.70;;;26.30;97.60;;;;;;5016783;28;20519;-90
2021/07/20 11:35:58;;;;;;;14.17;12.73;;;26.10;96.10;;;;;;5019979;28;20448;-91
2021/07/20 11:38:44;;;;;;;13.20;11.80;;;25.60;95.80;;;;;;5023186;28;20456;-88
2021/07/20 11:41:31;;;;;;;16.33;12.30;;;25.60;99.90;;;;;;5021533;28;21011;-88
2021/07/20 11:44:04;;;;;;;14.47;11.87;;;24.60;99.90;;;;;;5026041;28;20445;-89
2021/07/20 11:46:36;;;;;;;13.83;11.50;;;25.10;99.90;;;;;;5015222;28;20452;-90
2021/07/20 11:49:06;;;;;;;16.97;12.50;;;25.00;99.90;;;;;;5016700;28;20480;-90
2021/07/20 11:51:41;;;;;;;16.83;12.20;;;25.40;96.40;;;;;;5017617;28;20826;-90
2021/07/20 11:54:12;;;;;;;14.20;12.13;;;25.50;96.20;;;;;;5020511;28;20451;-88
2021/07/20 11:56:44;;;;;;;14.53;13.03;;;25.50;99.90;;;;;;5016601;28;20440;-90
2021/07/20 11:59:48;;;;;;;12.20;11.00;;;26.10;97.10;;;;;;5018315;28;20448;-92
2021/07/20 12:03:00;;;;;;;13.37;11.97;;;25.50;97.00;;;;;;5022548;28;20484;-90
2021/07/20 12:06:09;;;;;;;16.10;11.87;;;25.00;96.90;;;;;;5021386;28;20441;-91
2021/07/20 12:08:50;;;;;;;12.80;11.33;;;24.90;97.00;;;;;;5019643;28;20460;-92
2021/07/20 12:11:21;;;;;;;13.37;11.97;;;25.40;97.70;;;;;;5014787;28;20451;-93
2021/07/20 12:16:31;;;;;;;13.40;12.00;;;;;;;;;;4924318;29;20445;-94
2021/07/20 12:18:59;;;;;;;13.73;11.90;;;;;;;;;;4933433;28;20472;-92
2021/07/20 12:21:29;;;;;;;12.87;10.53;;;26.00;95.40;;;;;;4938113;29;20592;-91
2021/07/20 12:24:04;;;;;;;13.83;12.30;;;26.00;94.00;;;;;;4926003;28;20464;-92
2021/07/20 12:26:34;;;;;;;16.93;12.40;;;;;;;;;;4927898;29;20459;-92
2021/07/20 12:29:01;;;;;;;12.30;11.00;;;;;;;;;;4924778;29;20437;-93
2021/07/20 12:31:30;;;;;;;15.50;12.13;;;25.50;94.80;;;;;;4915713;29;20463;-92
2021/07/20 12:33:58;;;;;;;13.87;10.87;;;25.10;96.90;;;;;;4916117;29;20453;-91
2021/07/20 12:36:26;;;;;;;14.47;11.60;;;;;;;;;;4922365;29;20843;-91
2021/07/20 12:39:08;;;;;;;13.03;11.47;;;25.80;95.20;;;;;;4918895;29;20468;-90
2021/07/20 12:41:38;;;;;;;13.77;12.33;;;;;;;;;;4917065;29;21024;-90
2021/07/20 12:44:06;;;;;;;13.60;12.27;;;;;;;;;;4915645;29;20453;-92
2021/07/20 12:46:36;;;;;;;13.77;12.00;;;;;;;;;;4936297;28;20528;-92
2021/07/20 12:49:04;;;;;;;14.33;11.77;;;26.10;92.80;;;;;;5015948;28;20488;-91
2021/07/20 12:51:32;;;;;;;13.00;11.57;;;25.40;92.90;;;;;;5012003;28;20456;-92
2021/07/20 12:53:59;;;;;;;12.93;10.80;;;;;;;;;;5014360;28;21046;-91
2021/07/20 12:56:29;;;;;;;13.43;11.40;;;25.90;93.60;;;;;;5013338;28;20437;-90
2021/07/20 12:58:59;;;;;;;13.60;11.40;;;26.10;94.20;;;;;;5010218;28;20507;-92
2021/07/20 13:01:27;;;;;;;14.53;12.27;;;;;;;;;;5016855;28;21008;-91
2021/07/20 13:03:54;;;;;;;13.53;12.13;;;;;;;;;;5013358;28;20498;-93
2021/07/20 13:06:21;;;;;;;13.50;12.10;;;26.00;94.80;;;;;;5013423;28;20448;-94
2021/07/20 13:08:52;;;;;;;13.43;11.23;;;26.20;91.80;;;;;;5012069;28;20448;-93
2021/07/20 13:11:20;;;;;;;12.60;11.30;;;26.80;92.60;;;;;;5009047;28;20540;-93
2021/07/20 13:13:49;;;;;;;13.17;11.87;;;26.90;92.00;;;;;;5011284;28;20459;-93
2021/07/20 13:16:18;;;;;;;12.60;10.90;;;26.70;90.90;;;;;;5024341;28;20452;-93
2021/07/20 13:18:45;;;;;;;12.33;11.07;;;26.40;88.00;;;;;;5024440;28;20463;-92
2021/07/20 13:21:15;;;;;;;12.63;11.33;;;26.60;91.50;;;;;;5029779;28;20488;-93